sensor_id;sensor_type;location;lat;lon;timestamp;P1;durP1;ratioP1;P2;durP2;ratioP2
23782;SDS011;12071;50.850;4.446;2022-12-18T00:01:41;89.10;;;43.75;;
23782;SDS011;12071;50.850;4.446;2022-12-18T00:04:07;82.43;;;41.92;;
23782;SDS011;12071;50.850;4.446;2022-12-18T00:06:44;81.03;;;40.92;;
23782;SDS011;12071;50.850;4.446;2022-12-18T00:09:10;74.97;;;39.42;;
23782;SDS011;12071;50.850;4.446;2022-12-18T00:11:36;76.13;;;39.58;;
23782;SDS011;12071;50.850;4.446;2022-12-18T00:14:01;81.32;;;40.05;;
23782;SDS011;12071;50.850;4.446;2022-12-18T00:16:27;76.35;;;39.63;;
23782;SDS011;12071;50.850;4.446;2022-12-18T00:18:55;77.00;;;38.42;;
23782;SDS011;12071;50.850;4.446;2022-12-18T00:21:21;78.28;;;38.38;;
23782;SDS011;12071;50.850;4.446;2022-12-18T00:23:48;80.15;;;39.67;;
23782;SDS011;12071;50.850;4.446;2022-12-18T00:26:15;81.63;;;37.95;;
23782;SDS011;12071;50.850;4.446;2022-12-18T00:28:43;74.75;;;37.97;;
23782;SDS011;12071;50.850;4.446;2022-12-18T00:31:10;71.75;;;37.95;;
23782;SDS011;12071;50.850;4.446;2022-12-18T00:33:37;70.78;;;37.83;;
23782;SDS011;12071;50.850;4.446;2022-12-18T00:36:04;72.07;;;37.83;;
23782;SDS011;12071;50.850;4.446;2022-12-18T00:38:32;67.47;;;35.67;;
23782;SDS011;12071;50.850;4.446;2022-12-18T00:40:58;73.68;;;36.45;;
23782;SDS011;12071;50.850;4.446;2022-12-18T00:43:24;65.45;;;34.15;;
23782;SDS011;12071;50.850;4.446;2022-12-18T00:45:50;72.22;;;36.47;;
23782;SDS011;12071;50.850;4.446;2022-12-18T00:48:16;76.30;;;39.42;;
23782;SDS011;12071;50.850;4.446;2022-12-18T00:50:41;85.68;;;42.50;;
23782;SDS011;12071;50.850;4.446;2022-12-18T00:53:07;72.32;;;37.58;;
23782;SDS011;12071;50.850;4.446;2022-12-18T00:55:32;74.78;;;38.55;;
23782;SDS011;12071;50.850;4.446;2022-12-18T00:57:58;65.18;;;34.10;;
23782;SDS011;12071;50.850;4.446;2022-12-18T01:00:24;67.10;;;34.60;;
23782;SDS011;12071;50.850;4.446;2022-12-18T01:02:49;62.60;;;33.85;;
23782;SDS011;12071;50.850;4.446;2022-12-18T01:05:15;55.72;;;29.77;;
23782;SDS011;12071;50.850;4.446;2022-12-18T01:07:41;73.60;;;35.35;;
23782;SDS011;12071;50.850;4.446;2022-12-18T01:10:07;57.33;;;31.38;;
23782;SDS011;12071;50.850;4.446;2022-12-18T01:12:34;59.13;;;31.50;;
23782;SDS011;12071;50.850;4.446;2022-12-18T01:15:00;61.72;;;30.60;;
23782;SDS011;12071;50.850;4.446;2022-12-18T01:17:26;58.05;;;29.17;;
23782;SDS011;12071;50.850;4.446;2022-12-18T01:19:52;66.55;;;32.47;;
23782;SDS011;12071;50.850;4.446;2022-12-18T01:22:18;64.38;;;33.08;;
23782;SDS011;12071;50.850;4.446;2022-12-18T01:24:43;71.43;;;36.53;;
23782;SDS011;12071;50.850;4.446;2022-12-18T01:27:09;58.22;;;31.67;;
23782;SDS011;12071;50.850;4.446;2022-12-18T01:29:34;68.90;;;36.50;;
23782;SDS011;12071;50.850;4.446;2022-12-18T01:32:00;66.47;;;33.25;;
23782;SDS011;12071;50.850;4.446;2022-12-18T01:34:26;64.43;;;33.17;;
23782;SDS011;12071;50.850;4.446;2022-12-18T01:36:51;65.75;;;33.13;;
23782;SDS011;12071;50.850;4.446;2022-12-18T01:39:17;57.72;;;29.17;;
23782;SDS011;12071;50.850;4.446;2022-12-18T01:41:44;63.25;;;33.75;;
23782;SDS011;12071;50.850;4.446;2022-12-18T01:47:17;59.40;;;31.13;;
23782;SDS011;12071;50.850;4.446;2022-12-18T01:49:46;55.00;;;28.70;;
23782;SDS011;12071;50.850;4.446;2022-12-18T01:52:12;52.50;;;26.83;;
23782;SDS011;12071;50.850;4.446;2022-12-18T01:54:38;45.72;;;25.90;;
23782;SDS011;12071;50.850;4.446;2022-12-18T01:57:04;55.00;;;28.27;;
23782;SDS011;12071;50.850;4.446;2022-12-18T01:59:30;59.95;;;30.73;;
23782;SDS011;12071;50.850;4.446;2022-12-18T02:01:57;59.20;;;30.70;;
23782;SDS011;12071;50.850;4.446;2022-12-18T02:04:25;60.70;;;32.17;;
23782;SDS011;12071;50.850;4.446;2022-12-18T02:06:57;58.15;;;29.75;;
23782;SDS011;12071;50.850;4.446;2022-12-18T02:09:57;53.38;;;28.05;;
23782;SDS011;12071;50.850;4.446;2022-12-18T02:12:48;49.92;;;27.20;;
23782;SDS011;12071;50.850;4.446;2022-12-18T02:18:05;56.55;;;27.73;;
23782;SDS011;12071;50.850;4.446;2022-12-18T02:20:39;49.72;;;26.65;;
23782;SDS011;12071;50.850;4.446;2022-12-18T02:28:49;47.35;;;25.48;;
23782;SDS011;12071;50.850;4.446;2022-12-18T02:31:30;48.65;;;25.33;;
23782;SDS011;12071;50.850;4.446;2022-12-18T02:34:02;46.00;;;24.67;;
23782;SDS011;12071;50.850;4.446;2022-12-18T02:36:30;45.75;;;25.58;;
23782;SDS011;12071;50.850;4.446;2022-12-18T02:38:58;44.33;;;24.77;;
23782;SDS011;12071;50.850;4.446;2022-12-18T02:41:26;47.25;;;23.42;;
23782;SDS011;12071;50.850;4.446;2022-12-18T02:43:58;48.75;;;26.52;;
23782;SDS011;12071;50.850;4.446;2022-12-18T02:46:32;49.20;;;25.67;;
23782;SDS011;12071;50.850;4.446;2022-12-18T02:49:14;51.33;;;26.42;;
23782;SDS011;12071;50.850;4.446;2022-12-18T02:55:00;48.67;;;24.67;;
23782;SDS011;12071;50.850;4.446;2022-12-18T02:57:44;47.25;;;25.45;;
23782;SDS011;12071;50.850;4.446;2022-12-18T03:00:19;46.58;;;23.95;;
23782;SDS011;12071;50.850;4.446;2022-12-18T03:02:55;41.42;;;23.45;;
23782;SDS011;12071;50.850;4.446;2022-12-18T03:05:42;42.08;;;23.77;;
23782;SDS011;12071;50.850;4.446;2022-12-18T03:08:22;41.05;;;23.50;;
23782;SDS011;12071;50.850;4.446;2022-12-18T03:10:57;43.67;;;22.52;;
23782;SDS011;12071;50.850;4.446;2022-12-18T03:16:00;39.55;;;21.63;;
23782;SDS011;12071;50.850;4.446;2022-12-18T03:18:36;46.97;;;24.65;;
23782;SDS011;12071;50.850;4.446;2022-12-18T03:21:07;39.60;;;21.50;;
23782;SDS011;12071;50.850;4.446;2022-12-18T03:23:36;37.70;;;22.23;;
23782;SDS011;12071;50.850;4.446;2022-12-18T03:26:15;40.05;;;21.83;;
23782;SDS011;12071;50.850;4.446;2022-12-18T03:28:45;37.80;;;21.63;;
23782;SDS011;12071;50.850;4.446;2022-12-18T03:31:21;37.88;;;21.63;;
23782;SDS011;12071;50.850;4.446;2022-12-18T03:33:53;39.70;;;21.38;;
23782;SDS011;12071;50.850;4.446;2022-12-18T03:36:20;39.97;;;22.45;;
23782;SDS011;12071;50.850;4.446;2022-12-18T03:38:46;37.90;;;21.00;;
23782;SDS011;12071;50.850;4.446;2022-12-18T03:41:19;39.30;;;22.08;;
23782;SDS011;12071;50.850;4.446;2022-12-18T03:47:02;36.95;;;20.50;;
23782;SDS011;12071;50.850;4.446;2022-12-18T03:52:18;38.42;;;20.83;;
23782;SDS011;12071;50.850;4.446;2022-12-18T03:54:48;35.10;;;19.88;;
23782;SDS011;12071;50.850;4.446;2022-12-18T03:57:17;35.03;;;20.50;;
23782;SDS011;12071;50.850;4.446;2022-12-18T03:59:45;36.85;;;19.73;;
23782;SDS011;12071;50.850;4.446;2022-12-18T04:02:15;36.70;;;18.92;;
23782;SDS011;12071;50.850;4.446;2022-12-18T04:04:42;35.45;;;20.52;;
23782;SDS011;12071;50.850;4.446;2022-12-18T04:07:09;33.85;;;19.05;;
23782;SDS011;12071;50.850;4.446;2022-12-18T04:09:35;34.67;;;19.52;;
23782;SDS011;12071;50.850;4.446;2022-12-18T04:12:03;33.85;;;17.77;;
23782;SDS011;12071;50.850;4.446;2022-12-18T04:14:29;31.63;;;17.38;;
23782;SDS011;12071;50.850;4.446;2022-12-18T04:16:54;31.38;;;18.77;;
23782;SDS011;12071;50.850;4.446;2022-12-18T04:19:20;28.90;;;17.00;;
23782;SDS011;12071;50.850;4.446;2022-12-18T04:21:45;34.55;;;17.13;;
23782;SDS011;12071;50.850;4.446;2022-12-18T04:24:11;32.60;;;17.08;;
23782;SDS011;12071;50.850;4.446;2022-12-18T04:26:36;30.15;;;17.13;;
23782;SDS011;12071;50.850;4.446;2022-12-18T04:29:03;30.48;;;17.05;;
23782;SDS011;12071;50.850;4.446;2022-12-18T04:31:28;29.38;;;17.20;;
23782;SDS011;12071;50.850;4.446;2022-12-18T04:33:54;28.73;;;16.52;;
23782;SDS011;12071;50.850;4.446;2022-12-18T04:36:20;27.67;;;16.13;;
23782;SDS011;12071;50.850;4.446;2022-12-18T04:38:46;29.35;;;17.15;;
23782;SDS011;12071;50.850;4.446;2022-12-18T04:41:13;30.13;;;17.35;;
23782;SDS011;12071;50.850;4.446;2022-12-18T04:43:38;30.13;;;17.40;;
23782;SDS011;12071;50.850;4.446;2022-12-18T04:46:07;31.98;;;18.52;;
23782;SDS011;12071;50.850;4.446;2022-12-18T04:48:33;28.05;;;16.77;;
23782;SDS011;12071;50.850;4.446;2022-12-18T04:51:00;29.92;;;17.75;;
23782;SDS011;12071;50.850;4.446;2022-12-18T04:53:25;30.50;;;17.45;;
23782;SDS011;12071;50.850;4.446;2022-12-18T04:56:01;29.15;;;16.00;;
23782;SDS011;12071;50.850;4.446;2022-12-18T04:58:30;30.20;;;17.85;;
23782;SDS011;12071;50.850;4.446;2022-12-18T05:00:55;29.42;;;16.60;;
23782;SDS011;12071;50.850;4.446;2022-12-18T05:03:21;35.13;;;18.40;;
23782;SDS011;12071;50.850;4.446;2022-12-18T05:05:49;32.10;;;17.15;;
23782;SDS011;12071;50.850;4.446;2022-12-18T05:08:16;28.60;;;16.88;;
23782;SDS011;12071;50.850;4.446;2022-12-18T05:10:41;30.42;;;17.00;;
23782;SDS011;12071;50.850;4.446;2022-12-18T05:13:07;29.60;;;17.38;;
23782;SDS011;12071;50.850;4.446;2022-12-18T05:15:33;30.48;;;17.02;;
23782;SDS011;12071;50.850;4.446;2022-12-18T05:17:59;28.65;;;16.05;;
23782;SDS011;12071;50.850;4.446;2022-12-18T05:20:25;33.28;;;17.73;;
23782;SDS011;12071;50.850;4.446;2022-12-18T05:22:52;31.05;;;18.40;;
23782;SDS011;12071;50.850;4.446;2022-12-18T05:25:18;29.65;;;16.55;;
23782;SDS011;12071;50.850;4.446;2022-12-18T05:27:44;32.53;;;17.83;;
23782;SDS011;12071;50.850;4.446;2022-12-18T05:30:10;29.02;;;17.65;;
23782;SDS011;12071;50.850;4.446;2022-12-18T05:32:37;29.85;;;16.98;;
23782;SDS011;12071;50.850;4.446;2022-12-18T05:35:03;30.15;;;16.58;;
23782;SDS011;12071;50.850;4.446;2022-12-18T05:37:30;28.25;;;16.83;;
23782;SDS011;12071;50.850;4.446;2022-12-18T05:39:55;31.95;;;17.27;;
23782;SDS011;12071;50.850;4.446;2022-12-18T05:42:21;27.15;;;15.75;;
23782;SDS011;12071;50.850;4.446;2022-12-18T05:44:47;27.67;;;15.73;;
23782;SDS011;12071;50.850;4.446;2022-12-18T05:47:12;25.85;;;13.95;;
23782;SDS011;12071;50.850;4.446;2022-12-18T05:49:38;25.60;;;14.65;;
23782;SDS011;12071;50.850;4.446;2022-12-18T05:52:03;24.30;;;14.63;;
23782;SDS011;12071;50.850;4.446;2022-12-18T05:54:29;23.48;;;13.93;;
23782;SDS011;12071;50.850;4.446;2022-12-18T05:56:55;23.33;;;13.20;;
23782;SDS011;12071;50.850;4.446;2022-12-18T05:59:22;23.67;;;13.75;;
23782;SDS011;12071;50.850;4.446;2022-12-18T06:01:47;23.25;;;12.88;;
23782;SDS011;12071;50.850;4.446;2022-12-18T06:04:13;21.55;;;12.95;;
23782;SDS011;12071;50.850;4.446;2022-12-18T06:06:39;22.75;;;13.55;;
23782;SDS011;12071;50.850;4.446;2022-12-18T06:09:05;24.35;;;14.07;;
23782;SDS011;12071;50.850;4.446;2022-12-18T06:11:35;21.17;;;12.80;;
23782;SDS011;12071;50.850;4.446;2022-12-18T06:14:01;25.25;;;14.25;;
23782;SDS011;12071;50.850;4.446;2022-12-18T06:16:29;24.63;;;14.63;;
23782;SDS011;12071;50.850;4.446;2022-12-18T06:18:58;23.77;;;14.88;;
23782;SDS011;12071;50.850;4.446;2022-12-18T06:21:27;24.35;;;13.65;;
23782;SDS011;12071;50.850;4.446;2022-12-18T06:23:55;24.40;;;13.85;;
23782;SDS011;12071;50.850;4.446;2022-12-18T06:26:21;24.50;;;13.93;;
23782;SDS011;12071;50.850;4.446;2022-12-18T06:28:47;27.55;;;14.85;;
23782;SDS011;12071;50.850;4.446;2022-12-18T06:31:12;25.85;;;14.82;;
23782;SDS011;12071;50.850;4.446;2022-12-18T06:33:38;24.95;;;14.20;;
23782;SDS011;12071;50.850;4.446;2022-12-18T06:36:05;25.15;;;14.32;;
23782;SDS011;12071;50.850;4.446;2022-12-18T06:38:37;23.75;;;14.48;;
23782;SDS011;12071;50.850;4.446;2022-12-18T06:41:07;25.48;;;13.55;;
23782;SDS011;12071;50.850;4.446;2022-12-18T06:43:36;25.52;;;14.40;;
23782;SDS011;12071;50.850;4.446;2022-12-18T06:46:02;24.33;;;14.00;;
23782;SDS011;12071;50.850;4.446;2022-12-18T06:48:29;25.13;;;14.27;;
23782;SDS011;12071;50.850;4.446;2022-12-18T06:50:55;26.25;;;15.05;;
23782;SDS011;12071;50.850;4.446;2022-12-18T06:53:21;25.08;;;16.00;;
23782;SDS011;12071;50.850;4.446;2022-12-18T06:55:46;25.77;;;14.90;;
23782;SDS011;12071;50.850;4.446;2022-12-18T06:58:12;27.73;;;15.35;;
23782;SDS011;12071;50.850;4.446;2022-12-18T07:00:38;27.75;;;14.95;;
23782;SDS011;12071;50.850;4.446;2022-12-18T07:03:03;31.60;;;16.45;;
23782;SDS011;12071;50.850;4.446;2022-12-18T07:05:29;27.20;;;15.57;;
23782;SDS011;12071;50.850;4.446;2022-12-18T07:07:54;24.88;;;14.27;;
23782;SDS011;12071;50.850;4.446;2022-12-18T07:10:20;24.33;;;13.48;;
23782;SDS011;12071;50.850;4.446;2022-12-18T07:12:46;25.88;;;14.30;;
23782;SDS011;12071;50.850;4.446;2022-12-18T07:15:11;24.58;;;13.45;;
23782;SDS011;12071;50.850;4.446;2022-12-18T07:17:37;19.70;;;12.35;;
23782;SDS011;12071;50.850;4.446;2022-12-18T07:20:03;20.65;;;12.55;;
23782;SDS011;12071;50.850;4.446;2022-12-18T07:22:29;66.47;;;15.73;;
23782;SDS011;12071;50.850;4.446;2022-12-18T07:24:55;21.08;;;12.35;;
23782;SDS011;12071;50.850;4.446;2022-12-18T07:27:20;18.10;;;11.07;;
23782;SDS011;12071;50.850;4.446;2022-12-18T07:29:46;18.30;;;11.23;;
23782;SDS011;12071;50.850;4.446;2022-12-18T07:32:12;15.25;;;10.50;;
23782;SDS011;12071;50.850;4.446;2022-12-18T07:34:38;17.35;;;10.30;;
23782;SDS011;12071;50.850;4.446;2022-12-18T07:37:03;18.52;;;10.70;;
23782;SDS011;12071;50.850;4.446;2022-12-18T07:39:29;16.15;;;10.38;;
23782;SDS011;12071;50.850;4.446;2022-12-18T07:41:55;15.70;;;10.23;;
23782;SDS011;12071;50.850;4.446;2022-12-18T07:44:40;16.13;;;10.02;;
23782;SDS011;12071;50.850;4.446;2022-12-18T07:47:05;17.40;;;10.30;;
23782;SDS011;12071;50.850;4.446;2022-12-18T07:49:31;19.95;;;10.52;;
23782;SDS011;12071;50.850;4.446;2022-12-18T07:51:57;17.20;;;10.38;;
23782;SDS011;12071;50.850;4.446;2022-12-18T07:54:23;17.48;;;10.50;;
23782;SDS011;12071;50.850;4.446;2022-12-18T07:56:49;18.85;;;10.20;;
23782;SDS011;12071;50.850;4.446;2022-12-18T07:59:15;15.10;;;10.27;;
23782;SDS011;12071;50.850;4.446;2022-12-18T08:01:41;18.80;;;10.48;;
23782;SDS011;12071;50.850;4.446;2022-12-18T08:04:06;15.43;;;9.32;;
23782;SDS011;12071;50.850;4.446;2022-12-18T08:06:32;17.88;;;10.05;;
23782;SDS011;12071;50.850;4.446;2022-12-18T08:08:58;15.77;;;10.10;;
23782;SDS011;12071;50.850;4.446;2022-12-18T08:11:24;13.98;;;8.85;;
23782;SDS011;12071;50.850;4.446;2022-12-18T08:13:51;14.00;;;9.48;;
23782;SDS011;12071;50.850;4.446;2022-12-18T08:16:17;15.43;;;9.50;;
23782;SDS011;12071;50.850;4.446;2022-12-18T08:18:43;15.63;;;9.50;;
23782;SDS011;12071;50.850;4.446;2022-12-18T08:21:13;19.40;;;11.48;;
23782;SDS011;12071;50.850;4.446;2022-12-18T08:23:44;30.02;;;16.30;;
23782;SDS011;12071;50.850;4.446;2022-12-18T08:26:10;22.83;;;13.57;;
23782;SDS011;12071;50.850;4.446;2022-12-18T08:28:36;17.98;;;10.68;;
23782;SDS011;12071;50.850;4.446;2022-12-18T08:31:02;15.98;;;9.77;;
23782;SDS011;12071;50.850;4.446;2022-12-18T08:33:28;17.05;;;9.70;;
23782;SDS011;12071;50.850;4.446;2022-12-18T08:35:54;14.55;;;9.65;;
23782;SDS011;12071;50.850;4.446;2022-12-18T08:38:19;13.98;;;9.10;;
23782;SDS011;12071;50.850;4.446;2022-12-18T08:40:45;13.60;;;9.88;;
23782;SDS011;12071;50.850;4.446;2022-12-18T08:43:11;16.02;;;9.43;;
23782;SDS011;12071;50.850;4.446;2022-12-18T08:45:55;13.30;;;8.38;;
23782;SDS011;12071;50.850;4.446;2022-12-18T08:48:21;14.77;;;8.27;;
23782;SDS011;12071;50.850;4.446;2022-12-18T08:50:56;14.43;;;8.70;;
23782;SDS011;12071;50.850;4.446;2022-12-18T08:53:23;15.40;;;9.15;;
23782;SDS011;12071;50.850;4.446;2022-12-18T08:55:49;13.13;;;8.07;;
23782;SDS011;12071;50.850;4.446;2022-12-18T08:58:15;14.27;;;9.02;;
23782;SDS011;12071;50.850;4.446;2022-12-18T09:00:40;16.52;;;9.38;;
23782;SDS011;12071;50.850;4.446;2022-12-18T09:03:10;15.13;;;9.73;;
23782;SDS011;12071;50.850;4.446;2022-12-18T09:08:02;13.82;;;9.27;;
23782;SDS011;12071;50.850;4.446;2022-12-18T09:10:28;14.77;;;9.23;;
23782;SDS011;12071;50.850;4.446;2022-12-18T09:12:54;13.48;;;8.65;;
23782;SDS011;12071;50.850;4.446;2022-12-18T09:15:21;13.20;;;8.75;;
23782;SDS011;12071;50.850;4.446;2022-12-18T09:17:46;13.60;;;8.90;;
23782;SDS011;12071;50.850;4.446;2022-12-18T09:20:13;13.23;;;9.05;;
23782;SDS011;12071;50.850;4.446;2022-12-18T09:22:38;14.48;;;8.82;;
23782;SDS011;12071;50.850;4.446;2022-12-18T09:25:04;14.40;;;8.50;;
23782;SDS011;12071;50.850;4.446;2022-12-18T09:27:32;15.27;;;8.45;;
23782;SDS011;12071;50.850;4.446;2022-12-18T09:29:58;14.25;;;9.20;;
23782;SDS011;12071;50.850;4.446;2022-12-18T09:32:24;13.55;;;8.70;;
23782;SDS011;12071;50.850;4.446;2022-12-18T09:34:50;13.93;;;8.52;;
23782;SDS011;12071;50.850;4.446;2022-12-18T09:37:16;17.85;;;10.43;;
23782;SDS011;12071;50.850;4.446;2022-12-18T09:39:41;17.13;;;10.95;;
23782;SDS011;12071;50.850;4.446;2022-12-18T09:42:09;18.73;;;11.57;;
23782;SDS011;12071;50.850;4.446;2022-12-18T09:44:45;15.18;;;10.63;;
23782;SDS011;12071;50.850;4.446;2022-12-18T09:49:50;13.98;;;8.82;;
23782;SDS011;12071;50.850;4.446;2022-12-18T10:00:46;16.15;;;9.50;;
23782;SDS011;12071;50.850;4.446;2022-12-18T10:03:12;16.15;;;9.18;;
23782;SDS011;12071;50.850;4.446;2022-12-18T10:08:13;14.90;;;9.32;;
23782;SDS011;12071;50.850;4.446;2022-12-18T10:10:52;13.77;;;8.82;;
23782;SDS011;12071;50.850;4.446;2022-12-18T10:13:30;14.65;;;8.93;;
23782;SDS011;12071;50.850;4.446;2022-12-18T10:16:16;18.15;;;10.43;;
23782;SDS011;12071;50.850;4.446;2022-12-18T10:24:19;17.67;;;10.20;;
23782;SDS011;12071;50.850;4.446;2022-12-18T10:27:13;17.20;;;9.82;;
23782;SDS011;12071;50.850;4.446;2022-12-18T10:29:41;15.13;;;9.50;;
23782;SDS011;12071;50.850;4.446;2022-12-18T10:32:12;16.90;;;10.25;;
23782;SDS011;12071;50.850;4.446;2022-12-18T10:34:41;21.08;;;10.77;;
23782;SDS011;12071;50.850;4.446;2022-12-18T10:37:10;16.23;;;9.98;;
23782;SDS011;12071;50.850;4.446;2022-12-18T10:39:41;17.13;;;10.20;;
23782;SDS011;12071;50.850;4.446;2022-12-18T10:42:13;18.08;;;10.05;;
23782;SDS011;12071;50.850;4.446;2022-12-18T10:44:43;17.48;;;9.55;;
23782;SDS011;12071;50.850;4.446;2022-12-18T10:47:11;19.92;;;10.02;;
23782;SDS011;12071;50.850;4.446;2022-12-18T10:49:42;18.10;;;10.20;;
23782;SDS011;12071;50.850;4.446;2022-12-18T10:52:18;19.25;;;10.43;;
23782;SDS011;12071;50.850;4.446;2022-12-18T10:54:51;16.30;;;9.90;;
23782;SDS011;12071;50.850;4.446;2022-12-18T10:59:55;19.42;;;11.00;;
23782;SDS011;12071;50.850;4.446;2022-12-18T11:02:35;20.55;;;11.48;;
23782;SDS011;12071;50.850;4.446;2022-12-18T11:05:03;21.90;;;12.45;;
23782;SDS011;12071;50.850;4.446;2022-12-18T11:07:50;21.17;;;11.93;;
23782;SDS011;12071;50.850;4.446;2022-12-18T11:10:19;19.67;;;11.60;;
23782;SDS011;12071;50.850;4.446;2022-12-18T11:12:47;19.88;;;11.13;;
23782;SDS011;12071;50.850;4.446;2022-12-18T11:15:15;20.75;;;12.25;;
23782;SDS011;12071;50.850;4.446;2022-12-18T11:17:45;18.55;;;10.73;;
23782;SDS011;12071;50.850;4.446;2022-12-18T11:23:05;17.40;;;10.85;;
23782;SDS011;12071;50.850;4.446;2022-12-18T11:25:37;20.45;;;11.27;;
23782;SDS011;12071;50.850;4.446;2022-12-18T11:28:04;17.75;;;10.77;;
23782;SDS011;12071;50.850;4.446;2022-12-18T11:31:08;20.13;;;11.07;;
23782;SDS011;12071;50.850;4.446;2022-12-18T11:36:36;20.58;;;11.40;;
23782;SDS011;12071;50.850;4.446;2022-12-18T11:42:14;18.83;;;10.90;;
23782;SDS011;12071;50.850;4.446;2022-12-18T11:44:53;21.42;;;11.07;;
23782;SDS011;12071;50.850;4.446;2022-12-18T11:50:29;20.08;;;12.15;;
23782;SDS011;12071;50.850;4.446;2022-12-18T11:53:17;22.40;;;12.27;;
23782;SDS011;12071;50.850;4.446;2022-12-18T11:58:46;20.17;;;12.20;;
23782;SDS011;12071;50.850;4.446;2022-12-18T12:01:24;20.92;;;12.43;;
23782;SDS011;12071;50.850;4.446;2022-12-18T12:06:46;19.20;;;12.25;;
23782;SDS011;12071;50.850;4.446;2022-12-18T12:23:44;20.65;;;12.57;;
23782;SDS011;12071;50.850;4.446;2022-12-18T12:34:29;24.60;;;13.52;;
23782;SDS011;12071;50.850;4.446;2022-12-18T12:37:20;21.35;;;12.40;;
23782;SDS011;12071;50.850;4.446;2022-12-18T12:40:07;21.70;;;12.33;;
23782;SDS011;12071;50.850;4.446;2022-12-18T12:42:39;21.42;;;12.60;;
23782;SDS011;12071;50.850;4.446;2022-12-18T12:45:34;18.45;;;11.52;;
23782;SDS011;12071;50.850;4.446;2022-12-18T12:48:17;22.20;;;12.20;;
23782;SDS011;12071;50.850;4.446;2022-12-18T12:50:50;18.92;;;11.75;;
23782;SDS011;12071;50.850;4.446;2022-12-18T12:53:21;21.35;;;11.90;;
23782;SDS011;12071;50.850;4.446;2022-12-18T12:55:54;21.52;;;12.05;;
23782;SDS011;12071;50.850;4.446;2022-12-18T12:58:26;19.77;;;11.90;;
23782;SDS011;12071;50.850;4.446;2022-12-18T13:01:08;23.52;;;12.77;;
23782;SDS011;12071;50.850;4.446;2022-12-18T13:06:27;19.95;;;12.43;;
23782;SDS011;12071;50.850;4.446;2022-12-18T13:08:56;22.27;;;12.63;;
23782;SDS011;12071;50.850;4.446;2022-12-18T13:14:28;21.48;;;12.32;;
23782;SDS011;12071;50.850;4.446;2022-12-18T13:20:06;23.05;;;12.73;;
23782;SDS011;12071;50.850;4.446;2022-12-18T13:22:38;20.35;;;11.85;;
23782;SDS011;12071;50.850;4.446;2022-12-18T13:25:30;24.35;;;13.02;;
23782;SDS011;12071;50.850;4.446;2022-12-18T13:28:02;24.50;;;13.20;;
23782;SDS011;12071;50.850;4.446;2022-12-18T13:43:30;26.88;;;12.82;;
23782;SDS011;12071;50.850;4.446;2022-12-18T13:49:18;23.10;;;13.18;;
23782;SDS011;12071;50.850;4.446;2022-12-18T13:51:39;24.88;;;13.93;;
23782;SDS011;12071;50.850;4.446;2022-12-18T13:56:55;27.33;;;14.02;;
23782;SDS011;12071;50.850;4.446;2022-12-18T13:59:25;27.17;;;14.50;;
23782;SDS011;12071;50.850;4.446;2022-12-18T14:01:58;29.00;;;15.38;;
23782;SDS011;12071;50.850;4.446;2022-12-18T14:04:27;29.95;;;15.90;;
23782;SDS011;12071;50.850;4.446;2022-12-18T14:07:07;26.10;;;15.23;;
23782;SDS011;12071;50.850;4.446;2022-12-18T14:09:42;26.73;;;15.43;;
23782;SDS011;12071;50.850;4.446;2022-12-18T14:12:30;32.72;;;16.15;;
23782;SDS011;12071;50.850;4.446;2022-12-18T14:18:01;25.70;;;15.75;;
23782;SDS011;12071;50.850;4.446;2022-12-18T14:20:47;26.80;;;14.82;;
23782;SDS011;12071;50.850;4.446;2022-12-18T14:25:55;27.63;;;15.45;;
23782;SDS011;12071;50.850;4.446;2022-12-18T14:28:21;29.38;;;15.43;;
23782;SDS011;12071;50.850;4.446;2022-12-18T14:30:47;26.83;;;15.05;;
23782;SDS011;12071;50.850;4.446;2022-12-18T14:35:42;30.20;;;16.83;;
23782;SDS011;12071;50.850;4.446;2022-12-18T14:41:17;36.00;;;17.33;;
23782;SDS011;12071;50.850;4.446;2022-12-18T14:43:44;30.70;;;15.63;;
23782;SDS011;12071;50.850;4.446;2022-12-18T14:46:29;28.88;;;16.77;;
23782;SDS011;12071;50.850;4.446;2022-12-18T14:48:55;30.65;;;16.63;;
23782;SDS011;12071;50.850;4.446;2022-12-18T14:51:23;29.40;;;16.27;;
23782;SDS011;12071;50.850;4.446;2022-12-18T14:53:57;31.85;;;16.23;;
23782;SDS011;12071;50.850;4.446;2022-12-18T14:56:29;31.50;;;16.23;;
23782;SDS011;12071;50.850;4.446;2022-12-18T14:59:03;34.63;;;17.02;;
23782;SDS011;12071;50.850;4.446;2022-12-18T15:01:32;34.90;;;18.00;;
23782;SDS011;12071;50.850;4.446;2022-12-18T15:04:01;29.90;;;16.58;;
23782;SDS011;12071;50.850;4.446;2022-12-18T15:06:35;33.58;;;17.35;;
23782;SDS011;12071;50.850;4.446;2022-12-18T15:09:05;27.48;;;15.90;;
23782;SDS011;12071;50.850;4.446;2022-12-18T15:11:46;32.13;;;16.73;;
23782;SDS011;12071;50.850;4.446;2022-12-18T15:16:58;29.65;;;16.30;;
23782;SDS011;12071;50.850;4.446;2022-12-18T15:19:28;34.72;;;17.58;;
23782;SDS011;12071;50.850;4.446;2022-12-18T15:22:00;35.40;;;18.23;;
23782;SDS011;12071;50.850;4.446;2022-12-18T15:24:27;31.70;;;17.08;;
23782;SDS011;12071;50.850;4.446;2022-12-18T15:26:56;31.40;;;16.73;;
23782;SDS011;12071;50.850;4.446;2022-12-18T15:29:22;33.08;;;17.45;;
23782;SDS011;12071;50.850;4.446;2022-12-18T15:34:45;32.70;;;17.27;;
23782;SDS011;12071;50.850;4.446;2022-12-18T15:37:12;33.28;;;17.23;;
23782;SDS011;12071;50.850;4.446;2022-12-18T15:39:37;36.17;;;18.00;;
23782;SDS011;12071;50.850;4.446;2022-12-18T15:42:08;33.15;;;16.73;;
23782;SDS011;12071;50.850;4.446;2022-12-18T15:44:53;34.50;;;17.63;;
23782;SDS011;12071;50.850;4.446;2022-12-18T15:47:19;30.70;;;16.98;;
23782;SDS011;12071;50.850;4.446;2022-12-18T15:49:44;31.75;;;17.00;;
23782;SDS011;12071;50.850;4.446;2022-12-18T15:52:10;33.38;;;17.90;;
23782;SDS011;12071;50.850;4.446;2022-12-18T15:54:38;32.80;;;17.10;;
23782;SDS011;12071;50.850;4.446;2022-12-18T15:57:22;33.92;;;17.80;;
23782;SDS011;12071;50.850;4.446;2022-12-18T15:59:48;34.80;;;18.42;;
23782;SDS011;12071;50.850;4.446;2022-12-18T16:02:15;30.13;;;16.20;;
23782;SDS011;12071;50.850;4.446;2022-12-18T16:04:42;32.05;;;17.08;;
23782;SDS011;12071;50.850;4.446;2022-12-18T16:07:08;28.98;;;16.70;;
23782;SDS011;12071;50.850;4.446;2022-12-18T16:09:34;31.23;;;16.00;;
23782;SDS011;12071;50.850;4.446;2022-12-18T16:12:00;32.25;;;16.90;;
23782;SDS011;12071;50.850;4.446;2022-12-18T16:14:27;31.42;;;17.05;;
23782;SDS011;12071;50.850;4.446;2022-12-18T16:17:01;35.95;;;18.73;;
23782;SDS011;12071;50.850;4.446;2022-12-18T16:19:29;35.65;;;16.83;;
23782;SDS011;12071;50.850;4.446;2022-12-18T16:21:55;35.42;;;17.90;;
23782;SDS011;12071;50.850;4.446;2022-12-18T16:24:24;36.65;;;19.00;;
23782;SDS011;12071;50.850;4.446;2022-12-18T16:26:51;32.63;;;18.45;;
23782;SDS011;12071;50.850;4.446;2022-12-18T16:29:18;31.15;;;17.55;;
23782;SDS011;12071;50.850;4.446;2022-12-18T16:31:49;33.78;;;17.48;;
23782;SDS011;12071;50.850;4.446;2022-12-18T16:36:48;35.47;;;18.77;;
23782;SDS011;12071;50.850;4.446;2022-12-18T16:39:14;43.80;;;20.17;;
23782;SDS011;12071;50.850;4.446;2022-12-18T16:41:40;34.88;;;18.08;;
23782;SDS011;12071;50.850;4.446;2022-12-18T16:44:06;36.30;;;18.40;;
23782;SDS011;12071;50.850;4.446;2022-12-18T16:46:32;32.80;;;17.75;;
23782;SDS011;12071;50.850;4.446;2022-12-18T16:48:58;32.83;;;17.10;;
23782;SDS011;12071;50.850;4.446;2022-12-18T16:51:24;34.20;;;18.80;;